sensor_id;sensor_type;location;lat;lon;timestamp;temperature;humidity
30134;DHT22;16946;49.984;10.672;2023-12-20T00:00:20;6.00;99.90
30134;DHT22;16946;49.984;10.672;2023-12-20T00:00:51;6.00;99.90
30134;DHT22;16946;49.984;10.672;2023-12-20T00:01:22;6.00;99.90
30134;DHT22;16946;49.984;10.672;2023-12-20T00:01:53;6.00;99.90
30134;DHT22;16946;49.984;10.672;2023-12-20T00:02:23;6.00;99.90
30134;DHT22;16946;49.984;10.672;2023-12-20T00:02:54;5.90;99.90
30134;DHT22;16946;49.984;10.672;2023-12-20T00:03:24;5.90;99.90
30134;DHT22;16946;49.984;10.672;2023-12-20T00:03:55;5.90;99.90
30134;DHT22;16946;49.984;10.672;2023-12-20T00:04:25;5.90;99.90
30134;DHT22;16946;49.984;10.672;2023-12-20T00:04:56;5.90;99.90
30134;DHT22;16946;49.984;10.672;2023-12-20T00:05:26;5.90;99.90
30134;DHT22;16946;49.984;10.672;2023-12-20T00:05:57;5.90;99.90
30134;DHT22;16946;49.984;10.672;2023-12-20T00:06:28;5.90;99.90
30134;DHT22;16946;49.984;10.672;2023-12-20T00:06:58;5.90;99.90
30134;DHT22;16946;49.984;10.672;2023-12-20T00:07:29;5.90;99.90
30134;DHT22;16946;49.984;10.672;2023-12-20T00:07:59;5.80;99.90
30134;DHT22;16946;49.984;10.672;2023-12-20T00:08:30;5.90;99.90
30134;DHT22;16946;49.984;10.672;2023-12-20T00:09:00;5.90;99.90
30134;DHT22;16946;49.984;10.672;2023-12-20T00:09:31;5.90;99.90
30134;DHT22;16946;49.984;10.672;2023-12-20T00:10:01;5.90;99.90
30134;DHT22;16946;49.984;10.672;2023-12-20T00:10:32;5.90;99.90
30134;DHT22;16946;49.984;10.672;2023-12-20T00:11:02;5.90;99.90
30134;DHT22;16946;49.984;10.672;2023-12-20T00:11:33;5.90;99.90
30134;DHT22;16946;49.984;10.672;2023-12-20T00:12:03;5.80;99.90
30134;DHT22;16946;49.984;10.672;2023-12-20T00:12:34;5.80;99.90
30134;DHT22;16946;49.984;10.672;2023-12-20T00:13:04;5.80;99.90
30134;DHT22;16946;49.984;10.672;2023-12-20T00:13:35;5.80;99.90
30134;DHT22;16946;49.984;10.672;2023-12-20T00:14:05;5.80;99.90
30134;DHT22;16946;49.984;10.672;2023-12-20T00:14:36;5.70;99.90
30134;DHT22;16946;49.984;10.672;2023-12-20T00:15:07;5.70;99.90
30134;DHT22;16946;49.984;10.672;2023-12-20T00:15:37;5.70;99.90
30134;DHT22;16946;49.984;10.672;2023-12-20T00:16:09;5.70;99.90
30134;DHT22;16946;49.984;10.672;2023-12-20T00:16:40;5.70;99.90
30134;DHT22;16946;49.984;10.672;2023-12-20T00:17:10;5.70;99.90
30134;DHT22;16946;49.984;10.672;2023-12-20T00:17:41;5.70;99.90
30134;DHT22;16946;49.984;10.672;2023-12-20T00:18:11;5.70;99.90
30134;DHT22;16946;49.984;10.672;2023-12-20T00:18:42;5.70;99.90
30134;DHT22;16946;49.984;10.672;2023-12-20T00:19:12;5.70;99.90
30134;DHT22;16946;49.984;10.672;2023-12-20T00:19:43;5.70;99.90
30134;DHT22;16946;49.984;10.672;2023-12-20T00:20:13;5.70;99.90
30134;DHT22;16946;49.984;10.672;2023-12-20T00:20:44;5.70;99.90
30134;DHT22;16946;49.984;10.672;2023-12-20T00:21:14;5.70;99.90
30134;DHT22;16946;49.984;10.672;2023-12-20T00:21:45;5.70;99.90
30134;DHT22;16946;49.984;10.672;2023-12-20T00:22:16;5.70;99.90
30134;DHT22;16946;49.984;10.672;2023-12-20T00:22:46;5.70;99.90
30134;DHT22;16946;49.984;10.672;2023-12-20T00:23:17;5.70;99.90
30134;DHT22;16946;49.984;10.672;2023-12-20T00:23:47;5.70;99.90
30134;DHT22;16946;49.984;10.672;2023-12-20T00:24:18;5.70;99.90
30134;DHT22;16946;49.984;10.672;2023-12-20T00:24:48;5.70;99.90
30134;DHT22;16946;49.984;10.672;2023-12-20T00:25:19;5.70;99.90
30134;DHT22;16946;49.984;10.672;2023-12-20T00:25:49;5.70;99.90
30134;DHT22;16946;49.984;10.672;2023-12-20T00:26:20;5.70;99.90
30134;DHT22;16946;49.984;10.672;2023-12-20T00:26:50;5.60;99.90
30134;DHT22;16946;49.984;10.672;2023-12-20T00:27:21;5.60;99.90
30134;DHT22;16946;49.984;10.672;2023-12-20T00:27:52;5.70;99.90
30134;DHT22;16946;49.984;10.672;2023-12-20T00:28:22;5.70;99.90
30134;DHT22;16946;49.984;10.672;2023-12-20T00:28:53;5.70;99.90
30134;DHT22;16946;49.984;10.672;2023-12-20T00:29:23;5.70;99.90
30134;DHT22;16946;49.984;10.672;2023-12-20T00:29:54;5.70;99.90
30134;DHT22;16946;49.984;10.672;2023-12-20T00:30:24;5.70;99.90
30134;DHT22;16946;49.984;10.672;2023-12-20T00:30:55;5.70;99.90
30134;DHT22;16946;49.984;10.672;2023-12-20T00:31:25;5.70;99.90
30134;DHT22;16946;49.984;10.672;2023-12-20T00:31:56;5.70;99.90
30134;DHT22;16946;49.984;10.672;2023-12-20T00:32:26;5.70;99.90
30134;DHT22;16946;49.984;10.672;2023-12-20T00:32:57;5.60;99.90
30134;DHT22;16946;49.984;10.672;2023-12-20T00:33:27;5.70;99.90
30134;DHT22;16946;49.984;10.672;2023-12-20T00:33:58;5.60;99.90
30134;DHT22;16946;49.984;10.672;2023-12-20T00:34:28;5.70;99.90
30134;DHT22;16946;49.984;10.672;2023-12-20T00:34:59;5.60;99.90
30134;DHT22;16946;49.984;10.672;2023-12-20T00:35:29;5.60;99.90
30134;DHT22;16946;49.984;10.672;2023-12-20T00:36:00;5.60;99.90
30134;DHT22;16946;49.984;10.672;2023-12-20T00:36:30;5.60;99.90
30134;DHT22;16946;49.984;10.672;2023-12-20T00:37:01;5.70;99.90
30134;DHT22;16946;49.984;10.672;2023-12-20T00:37:31;5.70;99.90
30134;DHT22;16946;49.984;10.672;2023-12-20T00:38:02;5.70;99.90
30134;DHT22;16946;49.984;10.672;2023-12-20T00:38:33;5.60;99.90
30134;DHT22;16946;49.984;10.672;2023-12-20T00:39:03;5.70;99.90
30134;DHT22;16946;49.984;10.672;2023-12-20T00:39:34;5.70;99.90
30134;DHT22;16946;49.984;10.672;2023-12-20T00:40:05;5.70;99.90
30134;DHT22;16946;49.984;10.672;2023-12-20T00:40:36;5.70;99.90
30134;DHT22;16946;49.984;10.672;2023-12-20T00:41:06;5.70;99.90
30134;DHT22;16946;49.984;10.672;2023-12-20T00:41:37;5.70;99.90
30134;DHT22;16946;49.984;10.672;2023-12-20T00:42:07;5.70;99.90
30134;DHT22;16946;49.984;10.672;2023-12-20T00:42:38;5.70;99.90
30134;DHT22;16946;49.984;10.672;2023-12-20T00:43:09;5.70;99.90
30134;DHT22;16946;49.984;10.672;2023-12-20T00:43:39;5.70;99.90
30134;DHT22;16946;49.984;10.672;2023-12-20T00:44:10;5.80;99.90
30134;DHT22;16946;49.984;10.672;2023-12-20T00:44:40;5.80;99.90
30134;DHT22;16946;49.984;10.672;2023-12-20T00:45:11;5.80;99.90
30134;DHT22;16946;49.984;10.672;2023-12-20T00:45:41;5.70;99.90
30134;DHT22;16946;49.984;10.672;2023-12-20T00:46:12;5.80;99.90
30134;DHT22;16946;49.984;10.672;2023-12-20T00:46:42;5.80;99.90
30134;DHT22;16946;49.984;10.672;2023-12-20T00:47:13;5.80;99.90
30134;DHT22;16946;49.984;10.672;2023-12-20T00:47:43;5.80;99.90
30134;DHT22;16946;49.984;10.672;2023-12-20T00:48:14;5.80;99.90
30134;DHT22;16946;49.984;10.672;2023-12-20T00:48:44;5.80;99.90
30134;DHT22;16946;49.984;10.672;2023-12-20T00:49:16;5.80;99.90
30134;DHT22;16946;49.984;10.672;2023-12-20T00:49:46;5.80;99.90
30134;DHT22;16946;49.984;10.672;2023-12-20T00:50:17;5.80;99.90
30134;DHT22;16946;49.984;10.672;2023-12-20T00:50:47;5.80;99.90
30134;DHT22;16946;49.984;10.672;2023-12-20T00:51:18;5.80;99.90
30134;DHT22;16946;49.984;10.672;2023-12-20T00:51:48;5.80;99.90
30134;DHT22;16946;49.984;10.672;2023-12-20T00:52:20;5.80;99.90
30134;DHT22;16946;49.984;10.672;2023-12-20T00:52:52;5.80;99.90
30134;DHT22;16946;49.984;10.672;2023-12-20T00:53:25;5.80;99.90
30134;DHT22;16946;49.984;10.672;2023-12-20T00:53:55;5.80;99.90
30134;DHT22;16946;49.984;10.672;2023-12-20T00:54:26;5.80;99.90
30134;DHT22;16946;49.984;10.672;2023-12-20T00:54:56;5.80;99.90
30134;DHT22;16946;49.984;10.672;2023-12-20T00:55:27;5.80;99.90
30134;DHT22;16946;49.984;10.672;2023-12-20T00:55:57;5.80;99.90
30134;DHT22;16946;49.984;10.672;2023-12-20T00:56:29;5.80;99.90
30134;DHT22;16946;49.984;10.672;2023-12-20T00:56:59;5.80;99.90
30134;DHT22;16946;49.984;10.672;2023-12-20T00:57:30;5.80;99.90
30134;DHT22;16946;49.984;10.672;2023-12-20T00:58:01;5.80;99.90
30134;DHT22;16946;49.984;10.672;2023-12-20T00:58:32;5.80;99.90
30134;DHT22;16946;49.984;10.672;2023-12-20T00:59:02;5.80;99.90
30134;DHT22;16946;49.984;10.672;2023-12-20T00:59:33;5.80;99.90
30134;DHT22;16946;49.984;10.672;2023-12-20T01:00:04;5.80;99.90
30134;DHT22;16946;49.984;10.672;2023-12-20T01:00:34;5.80;99.90
30134;DHT22;16946;49.984;10.672;2023-12-20T01:01:05;5.70;99.90
30134;DHT22;16946;49.984;10.672;2023-12-20T01:01:35;5.70;99.90
30134;DHT22;16946;49.984;10.672;2023-12-20T01:02:06;5.70;99.90
30134;DHT22;16946;49.984;10.672;2023-12-20T01:02:36;5.70;99.90
30134;DHT22;16946;49.984;10.672;2023-12-20T01:03:07;5.70;99.90
30134;DHT22;16946;49.984;10.672;2023-12-20T01:03:37;5.70;99.90
30134;DHT22;16946;49.984;10.672;2023-12-20T01:04:08;5.70;99.90
30134;DHT22;16946;49.984;10.672;2023-12-20T01:04:38;5.70;99.90
30134;DHT22;16946;49.984;10.672;2023-12-20T01:05:09;5.70;99.90
30134;DHT22;16946;49.984;10.672;2023-12-20T01:05:39;5.70;99.90
30134;DHT22;16946;49.984;10.672;2023-12-20T01:06:10;5.70;99.90
30134;DHT22;16946;49.984;10.672;2023-12-20T01:06:41;5.70;99.90
30134;DHT22;16946;49.984;10.672;2023-12-20T01:07:11;5.70;99.90
30134;DHT22;16946;49.984;10.672;2023-12-20T01:07:42;5.70;99.90
30134;DHT22;16946;49.984;10.672;2023-12-20T01:08:12;5.70;99.90
30134;DHT22;16946;49.984;10.672;2023-12-20T01:08:43;5.80;99.90
30134;DHT22;16946;49.984;10.672;2023-12-20T01:09:13;5.80;99.90
30134;DHT22;16946;49.984;10.672;2023-12-20T01:09:44;5.80;99.90
30134;DHT22;16946;49.984;10.672;2023-12-20T01:10:15;5.80;99.90
30134;DHT22;16946;49.984;10.672;2023-12-20T01:10:45;5.80;99.90
30134;DHT22;16946;49.984;10.672;2023-12-20T01:11:17;5.80;99.90
30134;DHT22;16946;49.984;10.672;2023-12-20T01:11:47;5.80;99.90
30134;DHT22;16946;49.984;10.672;2023-12-20T01:12:18;5.80;99.90
30134;DHT22;16946;49.984;10.672;2023-12-20T01:12:50;5.80;99.90
30134;DHT22;16946;49.984;10.672;2023-12-20T01:13:21;5.80;99.90
30134;DHT22;16946;49.984;10.672;2023-12-20T01:13:51;5.70;99.90
30134;DHT22;16946;49.984;10.672;2023-12-20T01:14:22;5.70;99.90
30134;DHT22;16946;49.984;10.672;2023-12-20T01:14:52;5.70;99.90
30134;DHT22;16946;49.984;10.672;2023-12-20T01:15:23;5.70;99.90
30134;DHT22;16946;49.984;10.672;2023-12-20T01:15:53;5.80;99.90
30134;DHT22;16946;49.984;10.672;2023-12-20T01:16:24;5.80;99.90
30134;DHT22;16946;49.984;10.672;2023-12-20T01:16:54;5.80;99.90
30134;DHT22;16946;49.984;10.672;2023-12-20T01:17:25;5.80;99.90
30134;DHT22;16946;49.984;10.672;2023-12-20T01:17:55;5.90;99.90
30134;DHT22;16946;49.984;10.672;2023-12-20T01:18:27;5.90;99.90
30134;DHT22;16946;49.984;10.672;2023-12-20T01:18:58;5.90;99.90
30134;DHT22;16946;49.984;10.672;2023-12-20T01:19:28;5.90;99.90
30134;DHT22;16946;49.984;10.672;2023-12-20T01:20:00;5.90;99.90
30134;DHT22;16946;49.984;10.672;2023-12-20T01:20:31;5.90;99.90
30134;DHT22;16946;49.984;10.672;2023-12-20T01:21:02;5.90;99.90
30134;DHT22;16946;49.984;10.672;2023-12-20T01:21:33;5.90;99.90
30134;DHT22;16946;49.984;10.672;2023-12-20T01:22:04;5.80;99.90
30134;DHT22;16946;49.984;10.672;2023-12-20T01:22:35;5.80;99.90
30134;DHT22;16946;49.984;10.672;2023-12-20T01:23:06;5.80;99.90
30134;DHT22;16946;49.984;10.672;2023-12-20T01:23:36;5.80;99.90
30134;DHT22;16946;49.984;10.672;2023-12-20T01:24:07;5.80;99.90
30134;DHT22;16946;49.984;10.672;2023-12-20T01:24:37;5.80;99.90
30134;DHT22;16946;49.984;10.672;2023-12-20T01:25:08;5.80;99.90
30134;DHT22;16946;49.984;10.672;2023-12-20T01:25:39;5.80;99.90
30134;DHT22;16946;49.984;10.672;2023-12-20T01:26:09;5.80;99.90
30134;DHT22;16946;49.984;10.672;2023-12-20T01:26:40;5.80;99.90
30134;DHT22;16946;49.984;10.672;2023-12-20T01:27:10;5.80;99.90
30134;DHT22;16946;49.984;10.672;2023-12-20T01:27:41;5.70;99.90
30134;DHT22;16946;49.984;10.672;2023-12-20T01:28:11;5.80;99.90
30134;DHT22;16946;49.984;10.672;2023-12-20T01:28:42;5.80;99.90
30134;DHT22;16946;49.984;10.672;2023-12-20T01:29:13;5.80;99.90
30134;DHT22;16946;49.984;10.672;2023-12-20T01:29:44;5.80;99.90
30134;DHT22;16946;49.984;10.672;2023-12-20T01:30:15;5.80;99.90
30134;DHT22;16946;49.984;10.672;2023-12-20T01:30:45;5.70;99.90
30134;DHT22;16946;49.984;10.672;2023-12-20T01:31:16;5.70;99.90
30134;DHT22;16946;49.984;10.672;2023-12-20T01:31:46;5.70;99.90
30134;DHT22;16946;49.984;10.672;2023-12-20T01:32:17;5.60;99.90
30134;DHT22;16946;49.984;10.672;2023-12-20T01:32:47;5.60;99.90
30134;DHT22;16946;49.984;10.672;2023-12-20T01:33:18;5.60;99.90
30134;DHT22;16946;49.984;10.672;2023-12-20T01:33:48;5.60;99.90
30134;DHT22;16946;49.984;10.672;2023-12-20T01:34:19;5.60;99.90
30134;DHT22;16946;49.984;10.672;2023-12-20T01:34:49;5.60;99.90
30134;DHT22;16946;49.984;10.672;2023-12-20T01:35:20;5.60;99.90
30134;DHT22;16946;49.984;10.672;2023-12-20T01:35:50;5.60;99.90
30134;DHT22;16946;49.984;10.672;2023-12-20T01:36:21;5.70;99.90
30134;DHT22;16946;49.984;10.672;2023-12-20T01:36:51;5.70;99.90
30134;DHT22;16946;49.984;10.672;2023-12-20T01:37:22;5.70;99.90
30134;DHT22;16946;49.984;10.672;2023-12-20T01:37:54;5.80;99.90
30134;DHT22;16946;49.984;10.672;2023-12-20T01:38:27;5.80;99.90
30134;DHT22;16946;49.984;10.672;2023-12-20T01:38:57;5.90;99.90
30134;DHT22;16946;49.984;10.672;2023-12-20T01:39:28;5.90;99.90
30134;DHT22;16946;49.984;10.672;2023-12-20T01:39:58;5.90;99.90
30134;DHT22;16946;49.984;10.672;2023-12-20T01:40:29;5.90;99.90
30134;DHT22;16946;49.984;10.672;2023-12-20T01:40:59;5.90;99.90
30134;DHT22;16946;49.984;10.672;2023-12-20T01:41:30;5.90;99.90
30134;DHT22;16946;49.984;10.672;2023-12-20T01:42:01;5.90;99.90
30134;DHT22;16946;49.984;10.672;2023-12-20T01:42:31;5.80;99.90
30134;DHT22;16946;49.984;10.672;2023-12-20T01:43:06;5.80;99.90
30134;DHT22;16946;49.984;10.672;2023-12-20T01:43:37;5.80;99.90
30134;DHT22;16946;49.984;10.672;2023-12-20T01:44:08;5.80;99.90
30134;DHT22;16946;49.984;10.672;2023-12-20T01:44:39;5.80;99.90
30134;DHT22;16946;49.984;10.672;2023-12-20T01:45:09;5.80;99.90
30134;DHT22;16946;49.984;10.672;2023-12-20T01:45:40;5.80;99.90
30134;DHT22;16946;49.984;10.672;2023-12-20T01:46:10;5.90;99.90
30134;DHT22;16946;49.984;10.672;2023-12-20T01:46:42;5.80;99.90
30134;DHT22;16946;49.984;10.672;2023-12-20T01:47:13;5.90;99.90
30134;DHT22;16946;49.984;10.672;2023-12-20T01:47:43;5.90;99.90
30134;DHT22;16946;49.984;10.672;2023-12-20T01:48:15;5.80;99.90
30134;DHT22;16946;49.984;10.672;2023-12-20T01:48:48;5.80;99.90
30134;DHT22;16946;49.984;10.672;2023-12-20T01:49:19;5.80;99.90
30134;DHT22;16946;49.984;10.672;2023-12-20T01:49:50;5.90;99.90
30134;DHT22;16946;49.984;10.672;2023-12-20T01:50:21;5.90;99.90
30134;DHT22;16946;49.984;10.672;2023-12-20T01:50:52;5.90;99.90
30134;DHT22;16946;49.984;10.672;2023-12-20T01:51:23;5.90;99.90
30134;DHT22;16946;49.984;10.672;2023-12-20T01:51:55;5.80;99.90
30134;DHT22;16946;49.984;10.672;2023-12-20T01:52:26;5.90;99.90
30134;DHT22;16946;49.984;10.672;2023-12-20T01:53:01;5.90;99.90
30134;DHT22;16946;49.984;10.672;2023-12-20T01:53:32;5.80;99.90
30134;DHT22;16946;49.984;10.672;2023-12-20T01:54:03;5.80;99.90
30134;DHT22;16946;49.984;10.672;2023-12-20T01:54:35;5.80;99.90
30134;DHT22;16946;49.984;10.672;2023-12-20T01:55:06;5.80;99.90
30134;DHT22;16946;49.984;10.672;2023-12-20T01:55:44;5.80;99.90
30134;DHT22;16946;49.984;10.672;2023-12-20T01:56:15;5.90;99.90
30134;DHT22;16946;49.984;10.672;2023-12-20T01:56:46;5.80;99.90
30134;DHT22;16946;49.984;10.672;2023-12-20T01:57:17;5.80;99.90
30134;DHT22;16946;49.984;10.672;2023-12-20T01:57:47;5.70;99.90
30134;DHT22;16946;49.984;10.672;2023-12-20T01:58:19;5.70;99.90
30134;DHT22;16946;49.984;10.672;2023-12-20T01:58:49;5.70;99.90
30134;DHT22;16946;49.984;10.672;2023-12-20T01:59:20;5.70;99.90
30134;DHT22;16946;49.984;10.672;2023-12-20T01:59:51;5.70;99.90
30134;DHT22;16946;49.984;10.672;2023-12-20T02:00:22;5.70;99.90
30134;DHT22;16946;49.984;10.672;2023-12-20T02:00:54;5.70;99.90
30134;DHT22;16946;49.984;10.672;2023-12-20T02:01:25;5.70;99.90
30134;DHT22;16946;49.984;10.672;2023-12-20T02:01:56;5.60;99.90
30134;DHT22;16946;49.984;10.672;2023-12-20T02:02:27;5.60;99.90
30134;DHT22;16946;49.984;10.672;2023-12-20T02:03:01;5.60;99.90
30134;DHT22;16946;49.984;10.672;2023-12-20T02:03:32;5.60;99.90
30134;DHT22;16946;49.984;10.672;2023-12-20T02:04:02;5.60;99.90
30134;DHT22;16946;49.984;10.672;2023-12-20T02:04:34;5.60;99.90
30134;DHT22;16946;49.984;10.672;2023-12-20T02:05:06;5.60;99.90
30134;DHT22;16946;49.984;10.672;2023-12-20T02:05:38;5.60;99.90
30134;DHT22;16946;49.984;10.672;2023-12-20T02:06:09;5.50;99.90
30134;DHT22;16946;49.984;10.672;2023-12-20T02:06:40;5.50;99.90
30134;DHT22;16946;49.984;10.672;2023-12-20T02:07:11;5.60;99.90
30134;DHT22;16946;49.984;10.672;2023-12-20T02:07:42;5.60;99.90
30134;DHT22;16946;49.984;10.672;2023-12-20T02:08:12;5.60;99.90
30134;DHT22;16946;49.984;10.672;2023-12-20T02:08:43;5.60;99.90
30134;DHT22;16946;49.984;10.672;2023-12-20T02:09:15;5.60;99.90
30134;DHT22;16946;49.984;10.672;2023-12-20T02:09:45;5.60;99.90
30134;DHT22;16946;49.984;10.672;2023-12-20T02:10:16;5.70;99.90
30134;DHT22;16946;49.984;10.672;2023-12-20T02:10:47;5.70;99.90
30134;DHT22;16946;49.984;10.672;2023-12-20T02:11:18;5.60;99.90
30134;DHT22;16946;49.984;10.672;2023-12-20T02:11:49;5.60;99.90
30134;DHT22;16946;49.984;10.672;2023-12-20T02:12:20;5.60;99.90
30134;DHT22;16946;49.984;10.672;2023-12-20T02:12:51;5.60;99.90
30134;DHT22;16946;49.984;10.672;2023-12-20T02:13:22;5.60;99.90
30134;DHT22;16946;49.984;10.672;2023-12-20T02:13:53;5.60;99.90
30134;DHT22;16946;49.984;10.672;2023-12-20T02:14:24;5.60;99.90
30134;DHT22;16946;49.984;10.672;2023-12-20T02:14:54;5.60;99.90
30134;DHT22;16946;49.984;10.672;2023-12-20T02:15:25;5.60;99.90
30134;DHT22;16946;49.984;10.672;2023-12-20T02:15:56;5.70;99.90
30134;DHT22;16946;49.984;10.672;2023-12-20T02:16:26;5.70;99.90
30134;DHT22;16946;49.984;10.672;2023-12-20T02:16:57;5.70;99.90
30134;DHT22;16946;49.984;10.672;2023-12-20T02:17:28;5.70;99.90
30134;DHT22;16946;49.984;10.672;2023-12-20T02:17:59;5.60;99.90
30134;DHT22;16946;49.984;10.672;2023-12-20T02:18:30;5.60;99.90
30134;DHT22;16946;49.984;10.672;2023-12-20T02:19:01;5.60;99.90
30134;DHT22;16946;49.984;10.672;2023-12-20T02:19:31;5.60;99.90
30134;DHT22;16946;49.984;10.672;2023-12-20T02:20:02;5.60;99.90
30134;DHT22;16946;49.984;10.672;2023-12-20T02:20:33;5.60;99.90
30134;DHT22;16946;49.984;10.672;2023-12-20T02:21:05;5.60;99.90
30134;DHT22;16946;49.984;10.672;2023-12-20T02:21:36;5.50;99.90
30134;DHT22;16946;49.984;10.672;2023-12-20T02:22:12;5.50;99.90
30134;DHT22;16946;49.984;10.672;2023-12-20T02:22:43;5.50;99.90
30134;DHT22;16946;49.984;10.672;2023-12-20T02:23:13;5.50;99.90
30134;DHT22;16946;49.984;10.672;2023-12-20T02:23:44;5.50;99.90
30134;DHT22;16946;49.984;10.672;2023-12-20T02:24:14;5.50;99.90
30134;DHT22;16946;49.984;10.672;2023-12-20T02:24:45;5.50;99.90
30134;DHT22;16946;49.984;10.672;2023-12-20T02:25:15;5.40;99.90
30134;DHT22;16946;49.984;10.672;2023-12-20T02:25:46;5.40;99.90
30134;DHT22;16946;49.984;10.672;2023-12-20T02:26:16;5.40;99.90
30134;DHT22;16946;49.984;10.672;2023-12-20T02:26:48;5.40;99.90
30134;DHT22;16946;49.984;10.672;2023-12-20T02:27:19;5.40;99.90
30134;DHT22;16946;49.984;10.672;2023-12-20T02:27:50;5.40;99.90
30134;DHT22;16946;49.984;10.672;2023-12-20T02:28:21;5.40;99.90
30134;DHT22;16946;49.984;10.672;2023-12-20T02:28:52;5.40;99.90
30134;DHT22;16946;49.984;10.672;2023-12-20T02:29:23;5.40;99.90
30134;DHT22;16946;49.984;10.672;2023-12-20T02:29:54;5.40;99.90
30134;DHT22;16946;49.984;10.672;2023-12-20T02:30:24;5.40;99.90
30134;DHT22;16946;49.984;10.672;2023-12-20T02:30:55;5.40;99.90
30134;DHT22;16946;49.984;10.672;2023-12-20T02:31:25;5.40;99.90
30134;DHT22;16946;49.984;10.672;2023-12-20T02:31:56;5.40;99.90
30134;DHT22;16946;49.984;10.672;2023-12-20T02:32:26;5.40;99.90
30134;DHT22;16946;49.984;10.672;2023-12-20T02:32:59;5.40;99.90
30134;DHT22;16946;49.984;10.672;2023-12-20T02:33:31;5.40;99.90
30134;DHT22;16946;49.984;10.672;2023-12-20T02:34:01;5.40;99.90
30134;DHT22;16946;49.984;10.672;2023-12-20T02:34:32;5.40;99.90
30134;DHT22;16946;49.984;10.672;2023-12-20T02:35:02;5.40;99.90
30134;DHT22;16946;49.984;10.672;2023-12-20T02:35:33;5.40;99.90
30134;DHT22;16946;49.984;10.672;2023-12-20T02:36:04;5.40;99.90
30134;DHT22;16946;49.984;10.672;2023-12-20T02:36:34;5.40;99.90
30134;DHT22;16946;49.984;10.672;2023-12-20T02:37:05;5.40;99.90
30134;DHT22;16946;49.984;10.672;2023-12-20T02:37:35;5.50;99.90
30134;DHT22;16946;49.984;10.672;2023-12-20T02:38:06;5.40;99.90
30134;DHT22;16946;49.984;10.672;2023-12-20T02:38:36;5.50;99.90
30134;DHT22;16946;49.984;10.672;2023-12-20T02:39:07;5.50;99.90
30134;DHT22;16946;49.984;10.672;2023-12-20T02:39:37;5.50;99.90
30134;DHT22;16946;49.984;10.672;2023-12-20T02:40:08;5.40;99.90
30134;DHT22;16946;49.984;10.672;2023-12-20T02:40:38;5.40;99.90
30134;DHT22;16946;49.984;10.672;2023-12-20T02:41:09;5.40;99.90
30134;DHT22;16946;49.984;10.672;2023-12-20T02:41:40;5.40;99.90
30134;DHT22;16946;49.984;10.672;2023-12-20T02:42:10;5.40;99.90
30134;DHT22;16946;49.984;10.672;2023-12-20T02:42:41;5.40;99.90
30134;DHT22;16946;49.984;10.672;2023-12-20T02:43:11;5.50;99.90
30134;DHT22;16946;49.984;10.672;2023-12-20T02:43:42;5.40;99.90
30134;DHT22;16946;49.984;10.672;2023-12-20T02:44:12;5.40;99.90
30134;DHT22;16946;49.984;10.672;2023-12-20T02:44:43;5.40;99.90
30134;DHT22;16946;49.984;10.672;2023-12-20T02:45:13;5.40;99.90
30134;DHT22;16946;49.984;10.672;2023-12-20T02:45:44;5.40;99.90
30134;DHT22;16946;49.984;10.672;2023-12-20T02:46:15;5.50;99.90
30134;DHT22;16946;49.984;10.672;2023-12-20T02:46:47;5.50;99.90
30134;DHT22;16946;49.984;10.672;2023-12-20T02:47:17;5.50;99.90
30134;DHT22;16946;49.984;10.672;2023-12-20T02:47:48;5.40;99.90
30134;DHT22;16946;49.984;10.672;2023-12-20T02:48:19;5.40;99.90
30134;DHT22;16946;49.984;10.672;2023-12-20T02:48:49;5.30;99.90
30134;DHT22;16946;49.984;10.672;2023-12-20T02:49:20;5.40;99.90
30134;DHT22;16946;49.984;10.672;2023-12-20T02:49:50;5.30;99.90
30134;DHT22;16946;49.984;10.672;2023-12-20T02:50:21;5.30;99.90
30134;DHT22;16946;49.984;10.672;2023-12-20T02:50:52;5.30;99.90
30134;DHT22;16946;49.984;10.672;2023-12-20T02:51:22;5.30;99.90
30134;DHT22;16946;49.984;10.672;2023-12-20T02:51:53;5.30;99.90
30134;DHT22;16946;49.984;10.672;2023-12-20T02:52:24;5.30;99.90
30134;DHT22;16946;49.984;10.672;2023-12-20T02:52:54;5.30;99.90
30134;DHT22;16946;49.984;10.672;2023-12-20T02:53:25;5.40;99.90
30134;DHT22;16946;49.984;10.672;2023-12-20T02:53:55;5.40;99.90
30134;DHT22;16946;49.984;10.672;2023-12-20T02:54:26;5.40;99.90
30134;DHT22;16946;49.984;10.672;2023-12-20T02:54:57;5.40;99.90
30134;DHT22;16946;49.984;10.672;2023-12-20T02:55:27;5.40;99.90
30134;DHT22;16946;49.984;10.672;2023-12-20T02:55:58;5.40;99.90
30134;DHT22;16946;49.984;10.672;2023-12-20T02:56:28;5.40;99.90
30134;DHT22;16946;49.984;10.672;2023-12-20T02:56:59;5.40;99.90
30134;DHT22;16946;49.984;10.672;2023-12-20T02:57:29;5.40;99.90
30134;DHT22;16946;49.984;10.672;2023-12-20T02:58:00;5.40;99.90
30134;DHT22;16946;49.984;10.672;2023-12-20T02:58:30;5.40;99.90
30134;DHT22;16946;49.984;10.672;2023-12-20T02:59:01;5.40;99.90
30134;DHT22;16946;49.984;10.672;2023-12-20T02:59:32;5.40;99.90
30134;DHT22;16946;49.984;10.672;2023-12-20T03:00:02;5.40;99.90
30134;DHT22;16946;49.984;10.672;2023-12-20T03:00:33;5.30;99.90
30134;DHT22;16946;49.984;10.672;2023-12-20T03:01:04;5.40;99.90
30134;DHT22;16946;49.984;10.672;2023-12-20T03:01:35;5.40;99.90
30134;DHT22;16946;49.984;10.672;2023-12-20T03:02:05;5.40;99.90
30134;DHT22;16946;49.984;10.672;2023-12-20T03:02:36;5.40;99.90
30134;DHT22;16946;49.984;10.672;2023-12-20T03:03:06;5.40;99.90
30134;DHT22;16946;49.984;10.672;2023-12-20T03:03:37;5.40;99.90
30134;DHT22;16946;49.984;10.672;2023-12-20T03:04:07;5.40;99.90
30134;DHT22;16946;49.984;10.672;2023-12-20T03:04:38;5.40;99.90
30134;DHT22;16946;49.984;10.672;2023-12-20T03:05:08;5.40;99.90
30134;DHT22;16946;49.984;10.672;2023-12-20T03:05:39;5.40;99.90
30134;DHT22;16946;49.984;10.672;2023-12-20T03:06:10;5.40;99.90
30134;DHT22;16946;49.984;10.672;2023-12-20T03:06:40;5.30;99.90
30134;DHT22;16946;49.984;10.672;2023-12-20T03:07:11;5.30;99.90
30134;DHT22;16946;49.984;10.672;2023-12-20T03:07:42;5.30;99.90
30134;DHT22;16946;49.984;10.672;2023-12-20T03:08:13;5.30;99.90
30134;DHT22;16946;49.984;10.672;2023-12-20T03:08:43;5.30;99.90
30134;DHT22;16946;49.984;10.672;2023-12-20T03:09:14;5.30;99.90
30134;DHT22;16946;49.984;10.672;2023-12-20T03:09:44;5.30;99.90
30134;DHT22;16946;49.984;10.672;2023-12-20T03:10:15;5.30;99.90
30134;DHT22;16946;49.984;10.672;2023-12-20T03:10:45;5.40;99.90
30134;DHT22;16946;49.984;10.672;2023-12-20T03:11:16;5.40;99.90
30134;DHT22;16946;49.984;10.672;2023-12-20T03:11:46;5.40;99.90
30134;DHT22;16946;49.984;10.672;2023-12-20T03:12:17;5.40;99.90
30134;DHT22;16946;49.984;10.672;2023-12-20T03:12:47;5.40;99.90
30134;DHT22;16946;49.984;10.672;2023-12-20T03:13:18;5.50;99.90
30134;DHT22;16946;49.984;10.672;2023-12-20T03:13:48;5.50;99.90
30134;DHT22;16946;49.984;10.672;2023-12-20T03:14:19;5.50;99.90